Clezio — FAB4151 — position and weather

sailwx.info

Track history (hours):
 
Tides and Currents Weather Stations Pressure Air Temp Water Temp Dewpoint Dewpoint Depression Visibility Wind Speed Wind Dir Waves Ship Positions

Clezio

Last reported at 2018-Feb-17 15:54 UTC. Time now 2018-Feb-17 20:19 UTC.
Position N 49°29' E 000°06'.

Length 12 m.

Type: Sailing vessel. MMSI: 227201280.

Date/timePositionNaut miles runAvg speedWind from/ knotsBaromVisibWave heightAir tempDewpointWater temp
2018-Feb-17 15:54N 49°29' E 000°06'0 1.2
2018-Feb-17 15:30N 49°29' E 000°05'2 4.5
2018-Feb-17 14:58N 49°30' E 000°02'2 3.6
2018-Feb-17 14:30N 49°32' E 000°01'2 2.9
2018-Feb-17 13:56N 49°30' E 000°01'1 3.1
2018-Feb-17 13:28N 49°29' E 000°03'2 0.3
2018-Feb-17 08:06N 49°29' E 000°06'0 0.0
2018-Feb-17 08:00N 49°29' E 000°06'0 0.0
2018-Feb-17 07:30N 49°29' E 000°06'0 0.0
2018-Feb-15 18:55N 49°29' E 000°06'0 0.0
2018-Feb-15 18:19N 49°29' E 000°06'0 0.0
2018-Feb-15 17:58N 49°29' E 000°06'0 0.0
2018-Feb-15 17:25N 49°29' E 000°06'0 0.0
2018-Feb-15 16:55N 49°29' E 000°06'0 0.9
2018-Feb-15 16:30N 49°29' E 000°05'2 4.7
2018-Feb-15 16:00N 49°29' E 000°02'3 5.8
2018-Feb-15 15:29N 49°27' W 000°02'3 6.0
2018-Feb-15 15:00N 49°25' W 000°05'3 6.3
2018-Feb-15 14:29N 49°22' W 000°09'3 6.4
2018-Feb-15 14:00N 49°20' W 000°12'4 3.2
2018-Feb-15 12:46N 49°17' W 000°15'0 0.2
2018-Feb-15 11:40N 49°17' W 000°15'0 0.0
2018-Feb-15 11:16N 49°17' W 000°15'0 0.0
2018-Feb-15 10:52N 49°17' W 000°15'  
Track history (hours):
 
Tides and Currents Weather Stations Pressure Air Temp Water Temp Dewpoint Dewpoint Depression Visibility Wind Speed Wind Dir Waves Ship Positions

Clezio

Last reported at 2018-Feb-17 15:54 UTC. Time now 2018-Feb-17 20:19 UTC.
Position N 49°29' E 000°06'.

Length 12 m.

Type: Sailing vessel. MMSI: 227201280.

Date/timePositionNaut miles runAvg speedWind from/ knotsBaromVisibWave heightAir tempDewpointWater temp
2018-Feb-17 15:54N 49°29' E 000°06'0 1.2
2018-Feb-17 15:30N 49°29' E 000°05'2 4.5
2018-Feb-17 14:58N 49°30' E 000°02'2 3.6
2018-Feb-17 14:30N 49°32' E 000°01'2 2.9
2018-Feb-17 13:56N 49°30' E 000°01'1 3.1
2018-Feb-17 13:28N 49°29' E 000°03'2 0.3
2018-Feb-17 08:06N 49°29' E 000°06'0 0.0
2018-Feb-17 08:00N 49°29' E 000°06'0 0.0
2018-Feb-17 07:30N 49°29' E 000°06'0 0.0
2018-Feb-15 18:55N 49°29' E 000°06'0 0.0
2018-Feb-15 18:19N 49°29' E 000°06'0 0.0
2018-Feb-15 17:58N 49°29' E 000°06'0 0.0
2018-Feb-15 17:25N 49°29' E 000°06'0 0.0
2018-Feb-15 16:55N 49°29' E 000°06'0 0.9
2018-Feb-15 16:30N 49°29' E 000°05'2 4.7
2018-Feb-15 16:00N 49°29' E 000°02'3 5.8
2018-Feb-15 15:29N 49°27' W 000°02'3 6.0
2018-Feb-15 15:00N 49°25' W 000°05'3 6.3
2018-Feb-15 14:29N 49°22' W 000°09'3 6.4
2018-Feb-15 14:00N 49°20' W 000°12'4 3.2
2018-Feb-15 12:46N 49°17' W 000°15'0 0.2
2018-Feb-15 11:40N 49°17' W 000°15'0 0.0
2018-Feb-15 11:16N 49°17' W 000°15'0 0.0
2018-Feb-15 10:52N 49°17' W 000°15'  

Dump ship's entire track history